Flight Track Log - Related Links

Times and Time Zones

All times are in EDT time to prevent confusion due to time zone crossing. See the SWA1821 flight status page for this flight to view local times or setup timezone preferences in your user account.

Time Position Orientation Groundspeed Altitude Reporting Facility
EDT Latitude Longitude Course Direction KTS MPH feet Rate Location/Type
Sat 03:42:49 PM 39.3167 -94.7000 55° Northeast 153 176 1,700  Level Kansas TRACON
Sat 03:44:08 PM 39.3544 -94.6306 55° Northeast 228 262 4,100 2,186 Climbing Kansas Center
Sat 03:45:09 PM 39.3550 -94.5386 90° East 257 296 6,800 3,098 Climbing Kansas Center
Sat 03:46:10 PM 39.3625 -94.4364 85° East 285 328 10,400 2,710 Climbing Kansas Center
Sat 03:47:13 PM 39.3678 -94.3203 87° East 326 375 12,400 2,208 Climbing Kansas Center
Sat 03:48:15 PM 39.3744 -94.1822 86° East 382 440 15,000 2,705 Climbing Kansas Center
Sat 03:49:15 PM 39.3808 -94.0392 87° East 397 457 17,900 2,628 Climbing Kansas Center
Sat 03:50:16 PM 39.3922 -93.8903 84° East 415 478 20,300 2,213 Climbing Kansas Center
Sat 03:51:17 PM 39.4119 -93.7439 80° East 431 496 22,400 2,311 Climbing Kansas Center
Sat 03:52:18 PM 39.4369 -93.5517 80° East 452 520 25,000 2,256 Climbing Kansas Center
Sat 03:53:22 PM 39.4564 -93.3883 81° East 458 527 27,100 1,776 Climbing Kansas Center
Sat 03:54:23 PM 39.4764 -93.2214 81° East 469 540 28,700 1,475 Climbing Kansas Center
Sat 03:55:24 PM 39.4958 -93.0489 82° East 485 558 30,100 1,279 Climbing Kansas Center
Sat 03:56:25 PM 39.5169 -92.8703 81° East 496 571 31,300 1,475 Climbing Kansas Center
Sat 03:57:26 PM 39.5383 -92.6875 81° East 508 585 33,100 2,132 Climbing Kansas Center
Sat 03:58:26 PM 39.5617 -92.4742 82° East 511 588 35,600 2,081 Climbing Kansas Center
Sat 03:59:30 PM 39.5797 -92.3064 82° East 492 566 37,400 1,248 Climbing Kansas Center
Sat 04:00:31 PM 39.5975 -92.1400 82° East 479 551 38,200 590 Climbing Kansas Center
Sat 04:01:32 PM 39.6164 -91.9689 82° East 480 552 38,600 393 Climbing Kansas Center
Sat 04:02:33 PM 39.6353 -91.7917 82° East 494 568 39,000 197 Climbing Kansas Center
Sat 04:03:34 PM 39.6547 -91.6167 82° East 495 570 39,000  Level Kansas Center
Sat 04:04:35 PM 39.6769 -91.4078 82° East 495 570 39,000  Level Kansas Center
Sat 04:05:36 PM 39.6942 -91.2361 83° East 494 568 39,000  Level Kansas Center
Sat 04:06:37 PM 39.7117 -91.0608 83° East 494 568 39,000  Level Kansas Center
Sat 04:07:40 PM 39.7292 -90.8858 83° East 493 567 39,000  Level Kansas Center
Sat 04:08:41 PM 39.7461 -90.7111 83° East 493 567 39,000  Level Kansas Center
Sat 04:09:42 PM 39.7622 -90.5408 83° East 487 560 39,000  Level Kansas Center
Sat 04:10:42 PM 39.7778 -90.3689 83° East 486 559 39,000  Level Kansas Center
Sat 04:11:47 PM 39.7975 -90.1619 83° East 486 559 39,000  Level Kansas Center
Sat 04:12:48 PM 39.8117 -89.9872 84° East 485 558 39,000  Level Kansas Center
Sat 04:13:49 PM 39.8278 -89.8119 83° East 486 559 39,000  Level Kansas Center
Sat 04:14:49 PM 39.8436 -89.6369 83° East 487 560 39,000  Level Kansas Center
Sat 04:15:50 PM 39.8619 -89.4617 82° East 488 562 39,000  Level Kansas Center
Sat 04:16:51 PM 39.8803 -89.2839 82° East 493 567 39,000  Level Kansas Center
Sat 04:17:54 PM 39.8981 -89.1056 83° East 494 568 39,000  Level Kansas Center
Sat 04:19:37 PM 39.9300 -88.7864 82° East 493 567 39,000  Level Indianapolis Center
Sat 04:20:26 PM 39.9428 -88.6467 83° East 493 567 39,000  Level Indianapolis Center
Sat 04:21:27 PM 39.9583 -88.4717 83° East 492 566 39,000  Level Indianapolis Center
Sat 04:22:29 PM 39.9753 -88.2953 83° East 492 566 39,000  Level Indianapolis Center
Sat 04:23:30 PM 39.9939 -88.0853 83° East 491 565 39,000  Level Indianapolis Center
Sat 04:24:32 PM 40.0100 -87.9106 83° East 491 565 39,000  Level Indianapolis Center
Sat 04:25:34 PM 40.0253 -87.7361 83° East 489 563 39,000  Level Indianapolis Center
Sat 04:26:35 PM 40.0411 -87.5608 83° East 489 563 39,000  Level Indianapolis Center
Sat 04:27:37 PM 40.0550 -87.3867 84° East 487 560 39,000  Level Indianapolis Center
Sat 04:28:38 PM 40.0708 -87.2100 83° East 487 560 39,000  Level Indianapolis Center
Sat 04:29:40 PM 40.0842 -87.0317 84° East 489 563 39,000  Level Indianapolis Center
Sat 04:30:42 PM 40.0994 -86.8547 84° East 489 563 39,000  Level Indianapolis Center
Sat 04:31:43 PM 40.1161 -86.6422 84° East 489 563 39,000  Level Indianapolis Center
Sat 04:32:45 PM 40.1297 -86.4644 84° East 489 563 39,000  Level Indianapolis Center
Sat 04:33:46 PM 40.1431 -86.2867 84° East 489 563 39,000  Level Indianapolis Center
Sat 04:34:48 PM 40.1556 -86.1078 85° East 489 563 39,000  Level Indianapolis Center
Sat 04:35:49 PM 40.1692 -85.9283 84° East 489 563 39,000  Level Indianapolis Center
Sat 04:36:51 PM 40.1819 -85.7500 85° East 490 564 39,000  Level Indianapolis Center
Sat 04:37:52 PM 40.1942 -85.5700 85° East 491 565 39,000  Level Indianapolis Center
Sat 04:38:54 PM 40.2058 -85.3911 85° East 491 565 39,000  Level Indianapolis Center
Sat 04:39:55 PM 40.2175 -85.2106 85° East 496 571 39,000  Level Indianapolis Center
Sat 04:40:57 PM 40.2297 -85.0286 85° East 500 575 39,000  Level Indianapolis Center
Sat 04:41:58 PM 40.2419 -84.8244 85° East 500 575 39,000  Level Indianapolis Center
Sat 04:42:59 PM 40.2531 -84.6442 85° East 500 575 39,000  Level Indianapolis Center
Sat 04:44:01 PM 40.2633 -84.4628 86° East 499 574 39,000  Level Indianapolis Center
Sat 04:45:02 PM 40.2744 -84.2831 85° East 499 574 39,000  Level Indianapolis Center
Sat 04:46:04 PM 40.2856 -84.1036 85° East 498 573 39,000  Level Indianapolis Center
Sat 04:47:05 PM 40.3439 -83.9481 64° Northeast 485 558 39,000  Level Indianapolis Center
Sat 04:48:07 PM 40.4244 -83.8092 53° Northeast 479 551 39,000  Level Indianapolis Center
Sat 04:49:08 PM 40.5203 -83.6442 53° Northeast 476 548 39,000  Level Indianapolis Center
Sat 04:50:10 PM 40.6006 -83.5075 52° Northeast 472 543 39,000  Level Indianapolis Center
Sat 04:51:11 PM 40.6797 -83.3694 53° Northeast 472 543 39,000  Level Indianapolis Center
Sat 04:52:13 PM 40.7583 -83.2306 53° Northeast 472 543 39,000  Level Indianapolis Center
Sat 04:53:14 PM 40.8208 -83.0844 60° Northeast 478 550 39,000  Level Indianapolis Center
Sat 04:54:16 PM 40.8697 -82.9181 69° East 480 552 39,000  Level Indianapolis Center
Sat 04:55:17 PM 40.9181 -82.7531 69° East 480 552 39,000  Level Indianapolis Center
Sat 04:56:19 PM 40.9750 -82.5603 69° East 480 552 39,000  Level Indianapolis Center
Sat 04:57:20 PM 41.0231 -82.3958 69° East 479 551 39,000  Level Indianapolis Center
Sat 04:58:21 PM 41.0725 -82.2300 68° East 479 551 39,000  Level Indianapolis Center
Sat 04:59:23 PM 41.1194 -82.0644 69° East 479 551 39,000  Level Indianapolis Center
Sat 05:00:24 PM 41.1661 -81.9006 69° East 478 550 39,000 -195 Level Indianapolis Center
Sat 05:01:26 PM 41.2139 -81.7339 69° East 476 548 38,600 -634 Descending Indianapolis Center
Sat 05:02:27 PM 41.2569 -81.5747 70° East 477 549 37,700 -780 Descending Indianapolis Center
Sat 05:03:29 PM 41.3147 -81.3831 68° East 482 555 37,000 -341 Descending Indianapolis Center
Sat 05:04:30 PM 41.3611 -81.2153 70° East 482 555 37,000  Level Indianapolis Center
Sat 05:05:32 PM 41.4069 -81.0486 70° East 481 554 37,000  Level Indianapolis Center
Sat 05:07:02 PM 41.4772 -80.7997 69° East 477 549 37,000  Level Cleveland Center
Sat 05:08:03 PM 41.5247 -80.6317 69° East 479 551 37,000  Level Cleveland Center
Sat 05:09:05 PM 41.5703 -80.4633 70° East 479 551 37,000  Level Cleveland Center
Sat 05:10:06 PM 41.6103 -80.3103 71° East 479 551 37,000  Level Cleveland Center
Sat 05:11:08 PM 41.6653 -80.1111 70° East 478 550 37,000  Level Cleveland Center
Sat 05:12:09 PM 41.7058 -79.9583 70° East 478 550 37,000  Level Cleveland Center
Sat 05:13:11 PM 41.7506 -79.7903 70° East 477 549 37,000  Level Cleveland Center
Sat 05:14:12 PM 41.7978 -79.6089 71° East 475 547 37,000  Level Cleveland Center
Sat 05:15:14 PM 41.8394 -79.4467 71° East 464 534 37,000  Level Cleveland Center
Sat 05:16:15 PM 41.8819 -79.2839 71° East 465 535 37,000  Level Cleveland Center
Sat 05:17:17 PM 41.9231 -79.1239 71° East 460 529 37,000  Level Cleveland Center
Sat 05:18:18 PM 41.9633 -78.9639 71° East 457 526 37,000  Level Cleveland Center
Sat 05:19:20 PM 42.0042 -78.8097 70° East 444 511 37,000  Level Cleveland Center
Sat 05:20:22 PM 42.0517 -78.6217 71° East 443 510 37,000  Level Cleveland Center
Sat 05:21:23 PM 42.0903 -78.4664 71° East 443 510 37,000  Level Cleveland Center
Sat 05:22:25 PM 42.1297 -78.3058 72° East 447 514 37,000  Level Cleveland Center
Sat 05:23:26 PM 42.1672 -78.1558 71° East 451 519 37,000  Level Cleveland Center
Sat 05:24:28 PM 42.2139 -77.9653 72° East 451 519 37,000  Level Cleveland Center
Sat 05:25:29 PM 42.2536 -77.8044 71° East 453 521 37,000  Level Cleveland Center
Sat 05:26:31 PM 42.2917 -77.6442 72° East 453 521 37,000  Level Cleveland Center
Sat 05:27:33 PM 42.3292 -77.4850 72° East 453 521 37,000  Level Cleveland Center
Sat 05:28:34 PM 42.3672 -77.3264 72° East 453 521 37,000  Level Cleveland Center
Sat 05:29:36 PM 42.3806 -77.1592 84° East 449 517 37,000  Level Cleveland Center
Sat 05:30:38 PM 42.3919 -76.9578 86° East 453 521 37,000  Level Cleveland Center
Sat 05:31:39 PM 42.4000 -76.7919 86° East 449 517 37,000  Level Cleveland Center
Sat 05:32:41 PM 42.4078 -76.6278 86° East 443 510 37,000  Level Cleveland Center
Sat 05:33:26 PM 42.4158 -76.4978 85° East 439 505 37,000  Level Boston Center
Sat 05:34:27 PM 42.4228 -76.3322 87° East 440 506 37,000  Level Boston Center
Sat 05:35:28 PM 42.4314 -76.1572 86° East 440 506 37,000  Level Boston Center
Sat 05:36:29 PM 42.4389 -75.9931 86° East 439 505 37,000  Level Boston Center
Sat 05:37:30 PM 42.4456 -75.8308 87° East 438 504 37,000  Level Boston Center
Sat 05:38:32 PM 42.4536 -75.6672 86° East 438 504 37,000  Level Boston Center
Sat 05:39:33 PM 42.4594 -75.5028 87° East 438 504 37,000  Level Boston Center
Sat 05:40:34 PM 42.4667 -75.3400 87° East 438 504 37,000  Level Boston Center
Sat 05:41:35 PM 42.4725 -75.1758 87° East 438 504 37,000  Level Boston Center
Sat 05:42:36 PM 42.4781 -75.0111 87° East 439 505 37,000  Level Boston Center
Sat 05:43:38 PM 42.4842 -74.8472 87° East 440 506 37,000  Level Boston Center
Sat 05:44:39 PM 42.4906 -74.6469 87° East 442 509 37,000  Level Boston Center
Sat 05:45:40 PM 42.4944 -74.4808 88° East 444 511 37,000  Level Boston Center
Sat 05:46:41 PM 42.5003 -74.3364 87° East 444 511 37,000  Level Boston Center
Sat 05:47:42 PM 42.5069 -74.1358 87° East 444 511 37,000  Level Boston Center
Sat 05:48:44 PM 42.5117 -73.9678 88° East 446 513 37,000 -341 Level Boston Center
Sat 05:49:45 PM 42.5153 -73.8000 88° East 446 513 36,300 -787 Descending Boston Center
Sat 05:50:46 PM 42.5194 -73.6308 88° East 449 517 35,400 -885 Descending Boston Center
Sat 05:51:47 PM 42.5233 -73.4608 88° East 449 517 34,500 -878 Descending Boston Center
Sat 05:52:49 PM 42.5275 -73.2858 88° East 459 528 33,600 -927 Descending Boston Center
Sat 05:53:50 PM 42.5314 -73.1069 88° East 471 542 32,600 -1,033 Descending Boston Center
Sat 05:54:51 PM 42.5269 -72.9058 92° East 476 548 31,500 -1,967 Descending Boston Center
Sat 05:55:52 PM 42.5247 -72.7258 91° East 481 554 28,600 -2,732 Descending Boston Center
Sat 05:56:54 PM 42.5219 -72.5486 91° East 476 548 25,900 -2,634 Descending Boston Center
Sat 05:57:55 PM 42.5203 -72.3753 91° East 463 533 23,200 -2,508 Descending Boston Center
Sat 05:58:56 PM 42.5169 -72.2167 92° East 448 516 20,800 -2,557 Descending Boston Center
Sat 05:59:57 PM 42.5122 -72.0331 92° East 428 493 18,000 -2,585 Descending Boston Center
Sat 06:00:59 PM 42.5108 -71.8814 91° East 409 471 15,500 -2,537 Descending Boston Center
Sat 06:02:00 PM 42.5069 -71.7247 92° East 392 451 12,800 -2,164 Descending Boston Center
Sat 06:03:01 PM 42.5042 -71.5864 92° East 372 428 11,100 -885 Descending Boston Center
Sat 06:04:02 PM 42.5006 -71.4547 92° East 357 411 11,000 -49 Descending Boston Center
Sat 06:05:04 PM 42.4694 -71.3158 107° East 361 415 11,000 -195 Level Boston Center
Sat 06:06:05 PM 42.4428 -71.1961 107° East 336 387 10,600 -836 Descending Boston Center
Sat 06:07:06 PM 42.4169 -71.0900 108° East 303 349 9,300 -1,475 Descending Boston Center
Sat 06:08:07 PM 42.3917 -70.9858 108° East 297 342 7,600 -1,514 Descending Boston Center
Sat 06:08:57 PM 42.3333 -70.9667 166° South 289 333 6,500 -1,145 Descending KA90
Sat 06:09:57 PM 42.2500 -70.9500 172° South 274 315 5,500 -1,316 Descending KA90
Sat 06:10:51 PM 42.2167 -71.0000 228° Southwest 228 262 4,000 -1,842 Descending KA90
Sat 06:11:51 PM 42.2667 -71.0500 324° Northwest 207 238 2,000 -1,500 Descending KA90
Sat 06:12:51 PM 42.3000 -71.0333 20° North 161 185 1,000 -900 Descending KA90
Sat 06:13:51 PM 42.3500 -71.0167 14° North 139 160 200 -800 Descending KA90
Sat 06:16:00 PM 42.3630 -71.0064 200° South  Level Estimated

Login

Don't have an account? Register now (free) for customized features, flight alerts, and more!